Aérodrome :
LOGIN :

S'inscrire | Disclaimer

   EN    FR    IT 

 










Légende :    VFR   VFR Marginal   IFR   IFR Intensif   IFR Très Intensif
Visi : 
Plafond : 
>= 8 km
>= 3000ft
5 à 8 km
1000 à 3000 ft
1500m à 5 km
500 à 1000 ft
800 à 1500m
200 à 500 ft
< 800m
< 200 ft
Symboles :   Orages  Brouillard  Fortes neiges  Fortes précipitations  Vent > 20 kt
SIGMETs :   Divers  Orages  Givrage  Turbulence  Onde Orograph.  Cendres Volcan.







- Altitude de l'aérodrome : 24 ft
- Code IATA : IBZ


LEIB - Ibiza

DERNIER METAR :
  • 211730Z 22004KT 9999 FEW030 13/08 Q1030 NOSIG

METARs EXPIRÉS :
  • 211700Z 22004KT 9999 FEW035 14/08 Q1030 NOSIG
  • 211630Z 21004KT 9999 FEW035 15/08 Q1030 NOSIG
  • 211600Z 21005KT 9999 FEW035 15/08 Q1030 NOSIG
  • 211530Z 20005KT 170V230 9999 FEW030 SCT040 16/08 Q1030 NOSIG
  • 211500Z 21004KT 170V250 9999 FEW030 SCT037 16/08 Q1029 NOSIG

TAF TAF LEIB
Valide du 21 à 15h jusqu'au 22 à 15h UTC


211400Z 2115/2215 VRB04KT 9999 SCT025 TX16/2212Z TN06/2206Z
PROB40
TEMPO 2200/2208 31008KT
BECMG 2209/2211 24010KT
Pas de NOTAMs connus pour ce terrain.



MET'MAP, la Météo Aéronautique d'un coup d'oeil ! - Copyright ORBIFLY Décembre 2007 - Disclaimer

ORBIFLY MET'MAP TEAM :

Programmation & Développement : Alexandra Zaïnal
Conception & Développement : Baudouin d'Aumeries
Co-Programmation & Développement : Marc-Olivier Méhu
Soutien technique & logistique : Manuel Goepfert

Contact : metmap@orbifly.com




SOURCES & CREDITS :

   NOAA